createdAt,value
2023-05-06T00:00:47.017Z,73.30
2023-05-06T00:03:14.655Z,73.26
2023-05-06T00:05:43.340Z,73.43
2023-05-06T00:08:10.932Z,73.45
2023-05-06T00:10:39.816Z,73.61
2023-05-06T00:13:08.147Z,73.38
2023-05-06T00:15:36.308Z,73.24
2023-05-06T00:18:04.008Z,73.33
2023-05-06T00:20:32.010Z,74.62
2023-05-06T00:23:00.493Z,75.47
2023-05-06T00:25:27.990Z,75.12
2023-05-06T00:27:56.880Z,74.40
2023-05-06T00:30:25.497Z,73.91
2023-05-06T00:32:53.111Z,73.77
2023-05-06T00:35:20.735Z,73.82
2023-05-06T00:37:56.819Z,74.11
2023-05-06T00:40:24.461Z,73.72
2023-05-06T00:42:52.077Z,73.45
2023-05-06T00:45:21.048Z,73.49
2023-05-06T00:47:48.897Z,73.33
2023-05-06T00:50:16.560Z,73.53
2023-05-06T00:52:44.348Z,73.62
2023-05-06T00:55:11.934Z,73.77
2023-05-06T00:57:40.828Z,73.29
2023-05-06T01:00:11.489Z,73.72
2023-05-06T01:02:46.858Z,75.42
2023-05-06T01:05:15.301Z,75.68
2023-05-06T01:07:48.489Z,75.46
2023-05-06T01:10:24.847Z,75.90
2023-05-06T01:13:02.134Z,76.56
2023-05-06T01:15:35.186Z,75.39
2023-05-06T01:18:09.992Z,75.01
2023-05-06T01:20:38.178Z,74.68
2023-05-06T01:23:11.630Z,74.23
2023-05-06T01:25:39.518Z,74.14
2023-05-06T01:28:10.267Z,74.59
2023-05-06T01:30:44.581Z,74.38
2023-05-06T01:33:19.164Z,74.68
2023-05-06T01:35:56.396Z,75.23
2023-05-06T01:38:32.224Z,75.79
2023-05-06T01:41:01.547Z,75.90
2023-05-06T01:43:34.825Z,76.95
2023-05-06T01:46:02.970Z,75.58
2023-05-06T01:48:34.719Z,74.99
2023-05-06T01:51:02.594Z,74.33
2023-05-06T01:53:32.414Z,74.41
2023-05-06T01:55:59.933Z,73.94
2023-05-06T01:58:27.640Z,73.65
2023-05-06T02:00:55.180Z,73.89
2023-05-06T02:03:22.773Z,73.78
2023-05-06T02:05:50.350Z,73.98
2023-05-06T02:08:17.870Z,75.25
2023-05-06T02:10:46.714Z,75.75
2023-05-06T02:13:14.300Z,75.99
2023-05-06T02:15:41.865Z,75.65
2023-05-06T02:18:09.408Z,75.26
2023-05-06T02:20:36.915Z,74.46
2023-05-06T02:23:04.438Z,74.23
2023-05-06T02:25:32.261Z,74.02
2023-05-06T02:28:01.143Z,74.14
2023-05-06T02:30:30.431Z,74.11
2023-05-06T02:32:58.379Z,73.76
2023-05-06T02:35:25.907Z,73.82
2023-05-06T02:37:53.393Z,73.63
2023-05-06T02:40:20.934Z,74.60
2023-05-06T02:42:48.490Z,75.79
2023-05-06T02:45:17.664Z,75.23
2023-05-06T02:47:45.424Z,75.19
2023-05-06T02:50:13.023Z,75.61
2023-05-06T02:52:40.603Z,75.01
2023-05-06T02:55:08.935Z,74.64
2023-05-06T02:57:36.616Z,74.45
2023-05-06T03:00:06.087Z,74.24
2023-05-06T03:02:35.020Z,74.57
2023-05-06T03:05:04.354Z,74.58
2023-05-06T03:07:32.037Z,74.47
2023-05-06T03:09:59.646Z,74.60
2023-05-06T03:12:27.168Z,74.31
2023-05-06T03:14:54.669Z,74.55
2023-05-06T03:17:22.389Z,74.71
2023-05-06T03:19:51.921Z,74.37
2023-05-06T03:22:19.831Z,74.28
2023-05-06T03:24:47.476Z,74.17
2023-05-06T03:27:14.975Z,74.16
2023-05-06T03:29:42.502Z,74.03
2023-05-06T03:32:10.088Z,75.13
2023-05-06T03:34:37.650Z,75.16
2023-05-06T03:37:06.454Z,74.54
2023-05-06T03:39:33.948Z,74.96
2023-05-06T03:42:02.216Z,74.97
2023-05-06T03:44:29.746Z,74.76
2023-05-06T03:46:57.265Z,75.06
2023-05-06T03:49:24.741Z,74.88
2023-05-06T03:51:53.258Z,74.66
2023-05-06T03:54:22.129Z,75.81
2023-05-06T03:56:49.670Z,76.11
2023-05-06T03:59:17.214Z,76.30
2023-05-06T04:01:44.762Z,75.76
2023-05-06T04:04:12.469Z,75.88
2023-05-06T04:06:40.089Z,75.18
2023-05-06T04:09:07.616Z,76.25
2023-05-06T04:11:37.636Z,76.32
2023-05-06T04:14:05.156Z,75.69
2023-05-06T04:16:32.756Z,75.52
2023-05-06T04:19:01.433Z,77.27
2023-05-06T04:21:29.586Z,77.19
2023-05-06T04:23:57.131Z,76.23
2023-05-06T04:26:24.627Z,76.18
2023-05-06T04:28:53.492Z,77.08
2023-05-06T04:31:21.150Z,76.96
2023-05-06T04:33:48.701Z,76.53
2023-05-06T04:36:17.154Z,76.88
2023-05-06T04:38:44.697Z,76.39
2023-05-06T04:41:12.234Z,76.74
2023-05-06T04:43:39.755Z,76.65
2023-05-06T04:46:08.664Z,76.51
2023-05-06T04:48:36.221Z,76.31
2023-05-06T04:51:05.314Z,76.07
2023-05-06T04:53:33.057Z,76.82
2023-05-06T04:56:00.625Z,76.41
2023-05-06T04:58:28.125Z,77.07
2023-05-06T05:00:57.118Z,76.32
2023-05-06T05:03:26.279Z,75.75
2023-05-06T05:05:53.933Z,75.46
2023-05-06T05:08:21.451Z,75.31
2023-05-06T05:10:49.057Z,75.46
2023-05-06T05:13:22.686Z,75.22
2023-05-06T05:15:50.451Z,76.32
2023-05-06T05:18:17.986Z,77.24
2023-05-06T05:20:46.857Z,76.52
2023-05-06T05:23:14.322Z,76.04
2023-05-06T05:25:42.061Z,76.69
2023-05-06T05:28:09.588Z,76.86
2023-05-06T05:30:37.091Z,76.15
2023-05-06T05:33:04.853Z,75.45
2023-05-06T05:35:32.721Z,75.07
2023-05-06T05:38:01.753Z,74.62
2023-05-06T05:40:29.248Z,75.69
2023-05-06T05:42:56.826Z,76.20
2023-05-06T05:45:24.350Z,75.50
2023-05-06T05:47:53.676Z,75.30
2023-05-06T05:50:21.529Z,75.49
2023-05-06T05:52:49.264Z,75.12
2023-05-06T05:55:18.242Z,74.87
2023-05-06T05:57:45.894Z,74.66
2023-05-06T06:00:14.523Z,74.79
2023-05-06T06:02:42.138Z,74.07
2023-05-06T06:05:10.223Z,73.24
2023-05-06T06:07:37.901Z,73.36
2023-05-06T06:10:06.297Z,73.82
2023-05-06T06:12:35.223Z,75.90
2023-05-06T06:15:02.818Z,76.97
2023-05-06T06:17:30.358Z,76.47
2023-05-06T06:19:59.178Z,76.64
2023-05-06T06:22:27.117Z,76.25
2023-05-06T06:24:54.690Z,76.12
2023-05-06T06:27:22.208Z,75.10
2023-05-06T06:29:51.240Z,74.98
2023-05-06T06:32:19.454Z,75.35
2023-05-06T06:34:47.021Z,74.91
2023-05-06T06:37:14.630Z,74.26
2023-05-06T06:39:42.262Z,73.88
2023-05-06T06:42:09.792Z,73.81
2023-05-06T06:44:37.524Z,73.38
2023-05-06T06:47:06.526Z,71.32
2023-05-06T06:49:34.040Z,71.06
2023-05-06T06:52:01.510Z,69.67
2023-05-06T06:54:29.018Z,68.01
2023-05-06T06:56:57.245Z,68.22
2023-05-06T06:59:24.867Z,71.15
2023-05-06T07:01:52.421Z,70.10
2023-05-06T07:04:21.677Z,69.26
2023-05-06T07:06:49.243Z,66.81
2023-05-06T07:09:16.755Z,64.48
2023-05-06T07:11:44.430Z,62.42
2023-05-06T07:14:12.305Z,61.27
2023-05-06T07:16:39.847Z,63.13
2023-05-06T07:19:07.470Z,63.19
2023-05-06T07:21:36.399Z,65.32
2023-05-06T07:24:04.033Z,66.14
2023-05-06T07:26:31.503Z,66.25
2023-05-06T07:28:59.047Z,66.16
2023-05-06T07:31:26.763Z,67.28
2023-05-06T07:33:54.486Z,64.89
2023-05-06T07:36:21.979Z,64.89
2023-05-06T07:38:50.953Z,66.52
2023-05-06T07:41:18.485Z,66.72
2023-05-06T07:43:46.047Z,65.87
2023-05-06T07:46:13.738Z,66.85
2023-05-06T07:48:41.328Z,65.06
2023-05-06T07:51:08.863Z,61.39
2023-05-06T07:53:38.030Z,62.15
2023-05-06T07:56:07.400Z,62.17
2023-05-06T07:58:34.923Z,60.68
2023-05-06T08:01:03.290Z,59.74
2023-05-06T08:03:31.571Z,60.54
2023-05-06T08:06:00.171Z,59.40
2023-05-06T08:08:28.247Z,58.36
2023-05-06T08:10:56.330Z,58.37
2023-05-06T08:13:25.772Z,59.08
2023-05-06T08:15:53.429Z,60.75
2023-05-06T08:18:22.716Z,62.17
2023-05-06T08:20:51.125Z,59.24
2023-05-06T08:23:18.664Z,57.78
2023-05-06T08:25:46.505Z,57.31
2023-05-06T08:28:14.322Z,55.79
2023-05-06T08:30:43.219Z,54.62
2023-05-06T08:33:10.694Z,55.00
2023-05-06T08:35:38.230Z,53.66
2023-05-06T08:38:05.816Z,53.85
2023-05-06T08:40:33.813Z,53.10
2023-05-06T08:43:04.008Z,53.58
2023-05-06T08:45:31.653Z,53.39
2023-05-06T08:48:01.071Z,54.81
2023-05-06T08:50:29.136Z,54.89
2023-05-06T08:52:56.736Z,54.65
2023-05-06T08:55:27.077Z,53.60
2023-05-06T08:57:55.601Z,54.28
2023-05-06T09:00:23.185Z,53.18
2023-05-06T09:02:50.939Z,54.27
2023-05-06T09:05:19.893Z,54.18
2023-05-06T09:07:47.405Z,55.98
2023-05-06T09:10:15.533Z,55.80
2023-05-06T09:12:43.078Z,54.07
2023-05-06T09:15:11.872Z,55.59
2023-05-06T09:17:39.937Z,55.33
2023-05-06T09:20:12.530Z,55.73
2023-05-06T09:22:42.374Z,54.00
2023-05-06T09:25:11.871Z,52.97
2023-05-06T09:27:40.614Z,52.80
2023-05-06T09:30:09.924Z,54.02
2023-05-06T09:32:40.016Z,53.68
2023-05-06T09:35:09.685Z,51.95
2023-05-06T09:37:37.435Z,51.42
2023-05-06T09:40:07.816Z,49.66
2023-05-06T09:42:35.706Z,48.73
2023-05-06T09:45:03.842Z,48.83
2023-05-06T09:47:35.384Z,49.80
2023-05-06T09:50:03.724Z,50.16
2023-05-06T09:52:31.963Z,53.33
2023-05-06T09:55:00.321Z,51.80
2023-05-06T09:57:30.861Z,50.73
2023-05-06T09:59:58.910Z,50.31
2023-05-06T10:02:28.283Z,50.18
2023-05-06T10:04:58.184Z,50.71
2023-05-06T10:07:28.747Z,50.44
2023-05-06T10:09:59.308Z,51.18
2023-05-06T10:12:27.365Z,49.73
2023-05-06T10:14:56.523Z,49.03
2023-05-06T10:17:26.423Z,49.21
2023-05-06T10:19:58.295Z,49.19
2023-05-06T10:22:38.788Z,50.18
2023-05-06T10:25:16.840Z,50.23
2023-05-06T10:27:46.125Z,48.41
2023-05-06T10:30:17.569Z,47.14
2023-05-06T10:32:46.424Z,47.74
2023-05-06T10:35:23.541Z,47.94
2023-05-06T10:37:52.203Z,47.43
2023-05-06T10:40:20.144Z,48.87
2023-05-06T10:42:47.664Z,48.27
2023-05-06T10:45:16.539Z,46.55
2023-05-06T10:48:12.661Z,47.37
2023-05-06T10:50:40.687Z,47.85
2023-05-06T10:53:08.300Z,47.71
2023-05-06T10:55:37.674Z,48.97
2023-05-06T10:58:13.641Z,49.53
2023-05-06T11:00:42.899Z,49.59
2023-05-06T11:03:13.017Z,49.91
2023-05-06T11:05:51.563Z,49.23
2023-05-06T11:08:23.693Z,48.40
2023-05-06T11:10:51.672Z,48.20
2023-05-06T11:13:21.684Z,47.58
2023-05-06T11:15:52.009Z,48.31
2023-05-06T11:18:42.468Z,47.92
2023-05-06T11:21:38.664Z,46.46
2023-05-06T11:24:10.520Z,46.26
2023-05-06T11:26:38.140Z,44.92
2023-05-06T11:29:06.207Z,44.37
2023-05-06T11:31:40.422Z,45.86
2023-05-06T11:34:09.839Z,45.96
2023-05-06T11:36:45.980Z,44.52
2023-05-06T11:39:14.243Z,44.37
2023-05-06T11:41:42.119Z,44.00
2023-05-06T11:44:12.086Z,41.86
2023-05-06T11:46:41.151Z,42.09
2023-05-06T11:49:14.254Z,42.99
2023-05-06T11:51:41.804Z,43.42
2023-05-06T11:54:10.892Z,43.15
2023-05-06T11:56:50.005Z,43.40
2023-05-06T11:59:18.459Z,45.89
2023-05-06T12:01:47.432Z,44.25
2023-05-06T12:04:14.983Z,44.16
2023-05-06T12:06:42.604Z,42.34
2023-05-06T12:09:13.122Z,44.11
2023-05-06T12:11:43.649Z,42.02
2023-05-06T12:14:13.173Z,41.66
2023-05-06T12:16:41.272Z,38.97
2023-05-06T12:19:10.786Z,39.54
2023-05-06T12:21:39.264Z,41.68
2023-05-06T12:24:07.542Z,41.33
2023-05-06T12:26:46.476Z,43.03
2023-05-06T12:29:17.087Z,44.19
2023-05-06T12:31:47.030Z,43.84
2023-05-06T12:34:17.805Z,43.89
2023-05-06T12:36:47.351Z,43.59
2023-05-06T12:39:15.301Z,42.38
2023-05-06T12:41:45.479Z,41.90
2023-05-06T12:44:36.464Z,41.88
2023-05-06T12:47:07.312Z,43.46
2023-05-06T12:49:53.628Z,44.42
2023-05-06T12:52:23.577Z,44.55
2023-05-06T12:54:52.517Z,44.34
2023-05-06T12:57:20.386Z,44.32
2023-05-06T12:59:48.248Z,47.10
2023-05-06T13:02:17.130Z,47.23
2023-05-06T13:04:46.643Z,47.93
2023-05-06T13:07:15.539Z,47.27
2023-05-06T13:09:44.284Z,46.77
2023-05-06T13:12:11.876Z,46.15
2023-05-06T13:14:40.362Z,44.97
2023-05-06T13:17:08.240Z,44.92
2023-05-06T13:19:36.167Z,43.51
2023-05-06T13:22:03.830Z,42.63
2023-05-06T13:24:33.215Z,40.34
2023-05-06T13:27:01.004Z,39.42
2023-05-06T13:29:29.394Z,40.28
2023-05-06T13:31:56.955Z,42.43
2023-05-06T13:34:24.787Z,40.48
2023-05-06T13:36:54.646Z,41.09
2023-05-06T13:39:22.537Z,40.97
2023-05-06T13:41:51.834Z,40.15
2023-05-06T13:44:19.899Z,38.14
2023-05-06T13:46:47.732Z,38.29
2023-05-06T13:49:15.818Z,37.72
2023-05-06T13:51:43.341Z,38.63
2023-05-06T13:54:11.046Z,38.24
2023-05-06T13:56:38.786Z,37.40
2023-05-06T13:59:09.909Z,36.68
2023-05-06T14:01:38.111Z,36.71
2023-05-06T14:04:05.919Z,35.82
2023-05-06T14:06:33.498Z,36.93
2023-05-06T14:09:01.510Z,35.00
2023-05-06T14:11:28.998Z,33.21
2023-05-06T14:13:56.783Z,34.56
2023-05-06T14:16:25.712Z,32.65
2023-05-06T14:18:53.428Z,33.43
2023-05-06T14:21:21.548Z,32.70
2023-05-06T14:23:49.046Z,32.79
2023-05-06T14:26:16.641Z,34.41
2023-05-06T14:28:44.181Z,35.75
2023-05-06T14:31:11.695Z,34.76
2023-05-06T14:33:40.587Z,33.77
2023-05-06T14:36:08.501Z,34.64
2023-05-06T14:38:36.019Z,34.39
2023-05-06T14:41:03.550Z,35.69
2023-05-06T14:43:31.129Z,34.54
2023-05-06T14:45:58.743Z,35.36
2023-05-06T14:48:26.378Z,35.75
2023-05-06T14:50:55.310Z,37.90
2023-05-06T14:53:22.830Z,37.76
2023-05-06T14:55:50.392Z,39.22
2023-05-06T14:58:17.948Z,39.10
2023-05-06T15:00:45.942Z,38.86
2023-05-06T15:03:13.570Z,40.84
2023-05-06T15:05:41.170Z,40.99
2023-05-06T15:08:10.852Z,41.18
2023-05-06T15:10:38.409Z,41.21
2023-05-06T15:13:05.975Z,39.21
2023-05-06T15:15:33.460Z,39.95
2023-05-06T15:18:01.110Z,40.07
2023-05-06T15:20:28.690Z,39.54
2023-05-06T15:22:56.245Z,40.44
2023-05-06T15:25:34.884Z,40.47
2023-05-06T15:28:03.850Z,39.54
2023-05-06T15:30:31.527Z,39.08
2023-05-06T15:32:59.130Z,39.31
2023-05-06T15:35:27.201Z,36.93
2023-05-06T15:37:58.332Z,37.27
2023-05-06T15:40:27.612Z,37.23
2023-05-06T15:42:55.171Z,38.29
2023-05-06T15:45:23.517Z,39.11
2023-05-06T15:47:51.105Z,38.27
2023-05-06T15:50:32.972Z,37.70
2023-05-06T15:53:01.928Z,39.04
2023-05-06T15:55:35.156Z,38.08
2023-05-06T15:58:11.282Z,38.14
2023-05-06T16:00:38.793Z,37.27
2023-05-06T16:03:08.927Z,37.07
2023-05-06T16:05:38.565Z,36.05
2023-05-06T16:08:06.578Z,35.61
2023-05-06T16:10:35.828Z,35.58
2023-05-06T16:13:03.545Z,35.35
2023-05-06T16:15:31.285Z,35.19
2023-05-06T16:17:58.867Z,35.42
2023-05-06T16:20:26.498Z,36.89
2023-05-06T16:22:54.253Z,36.19
2023-05-06T16:25:21.816Z,35.63
2023-05-06T16:27:50.898Z,36.50
2023-05-06T16:30:18.709Z,37.23
2023-05-06T16:32:46.429Z,38.56
2023-05-06T16:35:14.068Z,38.26
2023-05-06T16:37:43.339Z,38.04
2023-05-06T16:40:13.106Z,37.53
2023-05-06T16:42:40.769Z,38.10
2023-05-06T16:45:11.433Z,38.56
2023-05-06T16:47:39.148Z,38.36
2023-05-06T16:50:08.485Z,38.46
2023-05-06T16:52:36.188Z,38.94
2023-05-06T16:55:03.976Z,39.32
2023-05-06T16:57:31.534Z,39.79
2023-05-06T16:59:59.139Z,39.70
2023-05-06T17:02:28.990Z,39.58
2023-05-06T17:04:56.612Z,40.79
2023-05-06T17:07:24.325Z,42.25
2023-05-06T17:09:51.840Z,42.72
2023-05-06T17:12:20.427Z,42.82
2023-05-06T17:14:47.922Z,42.90
2023-05-06T17:17:15.982Z,43.76
2023-05-06T17:19:44.846Z,44.50
2023-05-06T17:22:12.415Z,46.52
2023-05-06T17:24:39.920Z,48.88
2023-05-06T17:27:07.415Z,49.63
2023-05-06T17:29:34.938Z,51.14
2023-05-06T17:32:02.453Z,51.67
2023-05-06T17:34:30.402Z,51.85
2023-05-06T17:37:00.713Z,52.33
2023-05-06T17:39:28.224Z,52.66
2023-05-06T17:41:55.702Z,52.91
2023-05-06T17:44:23.196Z,52.48
2023-05-06T17:46:50.910Z,52.89
2023-05-06T17:49:18.504Z,53.92
2023-05-06T17:51:46.172Z,54.73
2023-05-06T17:54:15.074Z,54.62
2023-05-06T17:56:42.935Z,54.79
2023-05-06T17:59:11.242Z,55.12
2023-05-06T18:01:38.836Z,54.89
2023-05-06T18:04:06.849Z,55.47
2023-05-06T18:06:34.469Z,55.51
2023-05-06T18:09:01.982Z,55.91
2023-05-06T18:11:31.022Z,55.89
2023-05-06T18:13:58.555Z,55.43
2023-05-06T18:16:26.137Z,55.03
2023-05-06T18:18:53.658Z,54.80
2023-05-06T18:21:21.422Z,54.61
2023-05-06T18:23:51.449Z,55.04
2023-05-06T18:26:35.826Z,56.64
2023-05-06T18:29:10.587Z,58.77
2023-05-06T18:31:38.312Z,59.17
2023-05-06T18:34:05.940Z,60.35
2023-05-06T18:36:34.836Z,59.95
2023-05-06T18:39:02.423Z,58.57
2023-05-06T18:41:29.985Z,57.16
2023-05-06T18:43:57.745Z,57.54
2023-05-06T18:46:27.390Z,56.20
2023-05-06T18:48:55.906Z,56.08
2023-05-06T18:51:23.525Z,56.03
2023-05-06T18:53:51.033Z,56.89
2023-05-06T18:56:18.602Z,57.86
2023-05-06T18:58:46.275Z,57.02
2023-05-06T19:01:13.872Z,58.23
2023-05-06T19:03:42.852Z,60.72
2023-05-06T19:06:11.606Z,61.19
2023-05-06T19:08:39.511Z,59.90
2023-05-06T19:11:07.062Z,58.30
2023-05-06T19:13:34.543Z,56.79
2023-05-06T19:16:02.208Z,56.83
2023-05-06T19:18:29.682Z,57.31
2023-05-06T19:20:58.538Z,57.06
2023-05-06T19:23:26.196Z,58.04
2023-05-06T19:25:53.802Z,59.34
2023-05-06T19:28:21.342Z,60.26
2023-05-06T19:30:49.099Z,60.73
2023-05-06T19:33:17.033Z,60.58
2023-05-06T19:35:44.637Z,60.41
2023-05-06T19:38:13.589Z,60.62
2023-05-06T19:40:41.143Z,60.48
2023-05-06T19:43:08.662Z,59.99
2023-05-06T19:45:36.142Z,60.69
2023-05-06T19:48:04.334Z,61.59
2023-05-06T19:50:33.190Z,62.92
2023-05-06T19:53:00.757Z,65.02
2023-05-06T19:55:29.606Z,64.61
2023-05-06T19:57:57.632Z,63.89
2023-05-06T20:00:27.227Z,62.61
2023-05-06T20:02:55.067Z,61.20
2023-05-06T20:05:22.666Z,60.22
2023-05-06T20:07:51.133Z,60.73
2023-05-06T20:10:18.698Z,61.90
2023-05-06T20:12:47.703Z,61.99
2023-05-06T20:15:15.205Z,61.59
2023-05-06T20:17:42.759Z,62.14
2023-05-06T20:20:11.647Z,61.00
2023-05-06T20:22:40.356Z,59.18
2023-05-06T20:25:10.174Z,59.09
2023-05-06T20:27:37.912Z,59.62
2023-05-06T20:30:09.520Z,60.73
2023-05-06T20:32:37.522Z,61.98
2023-05-06T20:35:06.136Z,61.88
2023-05-06T20:37:35.211Z,62.26
2023-05-06T20:40:04.454Z,62.34
2023-05-06T20:42:32.179Z,61.31
2023-05-06T20:45:00.371Z,60.90
2023-05-06T20:47:29.315Z,62.60
2023-05-06T20:49:58.019Z,62.74
2023-05-06T20:52:25.692Z,61.97
2023-05-06T20:54:53.235Z,61.30
2023-05-06T20:57:22.462Z,62.41
2023-05-06T20:59:51.698Z,61.90
2023-05-06T21:02:19.300Z,61.84
2023-05-06T21:04:48.201Z,62.16
2023-05-06T21:07:15.795Z,62.25
2023-05-06T21:09:43.292Z,62.69
2023-05-06T21:12:10.835Z,62.11
2023-05-06T21:14:38.314Z,62.55
2023-05-06T21:17:05.911Z,62.50
2023-05-06T21:19:33.469Z,62.10
2023-05-06T21:22:02.435Z,61.63
2023-05-06T21:24:29.945Z,61.15
2023-05-06T21:26:57.572Z,61.38
2023-05-06T21:29:25.347Z,61.33
2023-05-06T21:31:52.850Z,61.23
2023-05-06T21:34:20.547Z,60.84
2023-05-06T21:36:48.086Z,60.71
2023-05-06T21:39:16.938Z,60.87
2023-05-06T21:41:44.466Z,60.82
2023-05-06T21:44:11.995Z,61.23
2023-05-06T21:46:39.628Z,61.77
2023-05-06T21:49:07.174Z,61.69
2023-05-06T21:51:36.730Z,61.76
2023-05-06T21:54:04.289Z,62.63
2023-05-06T21:56:33.233Z,62.35
2023-05-06T21:59:00.769Z,62.87
2023-05-06T22:01:28.978Z,64.06
2023-05-06T22:03:57.055Z,65.10
2023-05-06T22:06:24.596Z,64.76
2023-05-06T22:08:52.104Z,65.05
2023-05-06T22:11:19.604Z,65.90
2023-05-06T22:13:48.531Z,66.29
2023-05-06T22:16:17.037Z,66.44
2023-05-06T22:18:44.620Z,66.26
2023-05-06T22:21:12.095Z,65.48
2023-05-06T22:23:40.460Z,65.52
2023-05-06T22:26:08.099Z,66.74
2023-05-06T22:28:35.811Z,66.08
2023-05-06T22:31:04.866Z,65.59
2023-05-06T22:33:33.152Z,64.54
2023-05-06T22:36:00.765Z,64.14
2023-05-06T22:38:28.255Z,64.19
2023-05-06T22:40:55.772Z,65.05
2023-05-06T22:43:23.345Z,65.51
2023-05-06T22:45:50.875Z,66.77
2023-05-06T22:48:19.765Z,67.13
2023-05-06T22:50:47.560Z,66.77
2023-05-06T22:53:15.802Z,65.77
2023-05-06T22:55:43.507Z,66.90
2023-05-06T22:58:10.998Z,68.03
2023-05-06T23:00:38.600Z,68.32
2023-05-06T23:03:06.257Z,66.99
2023-05-06T23:05:35.332Z,65.86
2023-05-06T23:08:02.872Z,65.42
2023-05-06T23:10:30.390Z,65.48
2023-05-06T23:13:00.952Z,65.35
2023-05-06T23:15:29.061Z,64.96
2023-05-06T23:17:56.655Z,65.46
2023-05-06T23:20:24.213Z,65.63
2023-05-06T23:22:53.404Z,65.25
2023-05-06T23:25:21.059Z,65.04
2023-05-06T23:27:48.570Z,65.33
2023-05-06T23:30:16.335Z,64.97
2023-05-06T23:32:44.029Z,66.14
2023-05-06T23:35:12.008Z,67.08
2023-05-06T23:37:39.829Z,66.65
2023-05-06T23:40:12.379Z,66.57
2023-05-06T23:42:39.922Z,66.00
2023-05-06T23:45:08.762Z,66.14
2023-05-06T23:47:36.502Z,65.84
2023-05-06T23:50:04.375Z,65.98
2023-05-06T23:52:31.906Z,66.07
2023-05-06T23:54:59.461Z,65.71
2023-05-06T23:57:28.285Z,65.77
2023-05-06T23:59:55.862Z,66.12
